Ghadamis, Libya
Current Conditions -  °F | °C
As of 5:00 AM on Saturday 20 Dec 2014 (Local Time) from DAUZ Reporting Station
Clear Clear  
Wind Chill:   Ceiling: Unl
Heat Index:   Visibility: 6mi
Dew Point:   Wind: 13mph
Humidity: 70%   Direction: 40°NE
Pressure: 30.33"   Gusts: NA
Location:  30.13°N, 9.5°E
Report Text: DAUZ 200200Z 04011KT CAVOK 05/M00 Q1027
Loading
Personal Weather Stations






























Interactive Weather Map New forecast layout! Learn more

10-Day Weather Forecast

Advertisements
Track Severe Weather on mobile